sensor_id;sensor_type;location;lat;lon;timestamp;pressure;altitude;pressure_sealevel;temperature;humidity
33949;BME280;20229;49.856;19.030;2023-04-22T00:05:15;101487.46;;;7.51;67.29
33949;BME280;20229;49.856;19.030;2023-04-22T00:10:33;101482.09;;;7.50;67.35
33949;BME280;20229;49.856;19.030;2023-04-22T00:15:47;101481.23;;;7.48;67.23
33949;BME280;20229;49.856;19.030;2023-04-22T00:21:01;101483.00;;;7.49;67.29
33949;BME280;20229;49.856;19.030;2023-04-22T00:26:15;101475.77;;;7.49;67.05
33949;BME280;20229;49.856;19.030;2023-04-22T00:31:29;101478.36;;;7.52;66.99
33949;BME280;20229;49.856;19.030;2023-04-22T00:36:43;101481.07;;;7.52;67.20
33949;BME280;20229;49.856;19.030;2023-04-22T00:41:59;101472.14;;;7.49;67.05
33949;BME280;20229;49.856;19.030;2023-04-22T00:47:15;101465.81;;;7.48;67.04
33949;BME280;20229;49.856;19.030;2023-04-22T00:52:29;101471.16;;;7.51;67.58
33949;BME280;20229;49.856;19.030;2023-04-22T00:57:45;101471.16;;;7.51;66.99
33949;BME280;20229;49.856;19.030;2023-04-22T01:02:59;101475.65;;;7.52;67.48
33949;BME280;20229;49.856;19.030;2023-04-22T01:08:14;101471.13;;;7.53;66.56
33949;BME280;20229;49.856;19.030;2023-04-22T01:13:28;101471.06;;;7.54;66.54
33949;BME280;20229;49.856;19.030;2023-04-22T01:18:43;101474.77;;;7.52;66.91
33949;BME280;20229;49.856;19.030;2023-04-22T01:24:00;101472.11;;;7.50;66.14
33949;BME280;20229;49.856;19.030;2023-04-22T01:29:15;101479.39;;;7.48;66.59
33949;BME280;20229;49.856;19.030;2023-04-22T01:34:30;101475.80;;;7.48;66.00
33949;BME280;20229;49.856;19.030;2023-04-22T01:39:47;101482.18;;;7.47;66.27
33949;BME280;20229;49.856;19.030;2023-04-22T01:45:01;101474.19;;;7.42;66.06
33949;BME280;20229;49.856;19.030;2023-04-22T01:50:16;101475.25;;;7.36;66.25
33949;BME280;20229;49.856;19.030;2023-04-22T01:55:30;101488.86;;;7.35;65.98
33949;BME280;20229;49.856;19.030;2023-04-22T02:00:49;101482.75;;;7.28;66.62
33949;BME280;20229;49.856;19.030;2023-04-22T02:06:04;101478.39;;;7.23;66.72
33949;BME280;20229;49.856;19.030;2023-04-22T02:11:18;101484.85;;;7.18;67.79
33949;BME280;20229;49.856;19.030;2023-04-22T02:16:31;101475.99;;;7.12;67.36
33949;BME280;20229;49.856;19.030;2023-04-22T02:21:45;101474.31;;;7.08;67.58
33949;BME280;20229;49.856;19.030;2023-04-22T02:26:59;101473.42;;;7.07;67.24
33949;BME280;20229;49.856;19.030;2023-04-22T02:32:13;101477.05;;;7.06;67.72
33949;BME280;20229;49.856;19.030;2023-04-22T02:37:29;101478.05;;;7.04;67.95
33949;BME280;20229;49.856;19.030;2023-04-22T02:42:43;101474.57;;;6.99;67.88
33949;BME280;20229;49.856;19.030;2023-04-22T02:47:57;101462.97;;;6.93;67.79
33949;BME280;20229;49.856;19.030;2023-04-22T02:53:11;101474.85;;;6.89;67.52
33949;BME280;20229;49.856;19.030;2023-04-22T02:58:25;101470.39;;;6.87;68.09
33949;BME280;20229;49.856;19.030;2023-04-22T03:03:39;101473.25;;;6.82;68.08
33949;BME280;20229;49.856;19.030;2023-04-22T03:08:55;101465.12;;;6.82;67.66
33949;BME280;20229;49.856;19.030;2023-04-22T03:14:10;101472.46;;;6.79;67.79
33949;BME280;20229;49.856;19.030;2023-04-22T03:19:24;101479.81;;;6.74;67.94
33949;BME280;20229;49.856;19.030;2023-04-22T03:24:37;101477.19;;;6.70;67.70
33949;BME280;20229;49.856;19.030;2023-04-22T03:29:52;101470.93;;;6.68;68.25
33949;BME280;20229;49.856;19.030;2023-04-22T03:35:06;101470.93;;;6.68;68.01
33949;BME280;20229;49.856;19.030;2023-04-22T03:40:20;101475.48;;;6.68;67.80
33949;BME280;20229;49.856;19.030;2023-04-22T03:45:35;101474.55;;;6.67;67.88
33949;BME280;20229;49.856;19.030;2023-04-22T03:50:49;101483.63;;;6.66;68.56
33949;BME280;20229;49.856;19.030;2023-04-22T03:56:03;101474.67;;;6.64;68.65
33949;BME280;20229;49.856;19.030;2023-04-22T04:01:17;101489.12;;;6.65;69.00
33949;BME280;20229;49.856;19.030;2023-04-22T04:06:31;101485.41;;;6.67;68.37
33949;BME280;20229;49.856;19.030;2023-04-22T04:11:46;101483.48;;;6.73;68.59
33949;BME280;20229;49.856;19.030;2023-04-22T04:17:00;101489.70;;;6.76;68.40
33949;BME280;20229;49.856;19.030;2023-04-22T04:22:15;101480.45;;;6.83;68.23
33949;BME280;20229;49.856;19.030;2023-04-22T04:27:30;101493.79;;;6.91;68.90
33949;BME280;20229;49.856;19.030;2023-04-22T04:32:44;101493.63;;;6.97;68.20
33949;BME280;20229;49.856;19.030;2023-04-22T04:38:01;101497.98;;;7.03;68.77
33949;BME280;20229;49.856;19.030;2023-04-22T04:43:15;101497.66;;;7.13;68.63
33949;BME280;20229;49.856;19.030;2023-04-22T04:48:31;101499.13;;;7.25;68.42
33949;BME280;20229;49.856;19.030;2023-04-22T04:53:48;101499.62;;;7.38;67.83
33949;BME280;20229;49.856;19.030;2023-04-22T04:59:02;101493.93;;;7.47;67.20
33949;BME280;20229;49.856;19.030;2023-04-22T05:04:16;101494.38;;;7.61;66.45
33949;BME280;20229;49.856;19.030;2023-04-22T05:09:30;101493.98;;;7.74;66.33
33949;BME280;20229;49.856;19.030;2023-04-22T05:14:51;101491.73;;;7.88;65.96
33949;BME280;20229;49.856;19.030;2023-04-22T05:20:06;101486.76;;;8.01;65.86
33949;BME280;20229;49.856;19.030;2023-04-22T05:25:20;101475.32;;;8.18;65.36
33949;BME280;20229;49.856;19.030;2023-04-22T05:30:33;101490.20;;;8.34;65.19
33949;BME280;20229;49.856;19.030;2023-04-22T05:35:47;101497.63;;;8.55;64.70
33949;BME280;20229;49.856;19.030;2023-04-22T05:41:01;101500.50;;;8.76;64.10
33949;BME280;20229;49.856;19.030;2023-04-22T05:46:15;101496.95;;;8.99;63.33
33949;BME280;20229;49.856;19.030;2023-04-22T05:51:29;101496.67;;;9.30;62.57
33949;BME280;20229;49.856;19.030;2023-04-22T05:56:43;101496.70;;;9.75;61.82
33949;BME280;20229;49.856;19.030;2023-04-22T06:01:57;101494.84;;;11.42;59.48
33949;BME280;20229;49.856;19.030;2023-04-22T06:07:11;101485.85;;;13.52;55.36
33949;BME280;20229;49.856;19.030;2023-04-22T06:12:25;101484.48;;;16.65;48.02
33949;BME280;20229;49.856;19.030;2023-04-22T06:17:40;101478.64;;;21.23;40.45
33949;BME280;20229;49.856;19.030;2023-04-22T06:22:54;101472.92;;;24.89;32.78
33949;BME280;20229;49.856;19.030;2023-04-22T06:28:08;101467.37;;;27.50;29.77
33949;BME280;20229;49.856;19.030;2023-04-22T06:33:22;101464.42;;;29.45;26.56
33949;BME280;20229;49.856;19.030;2023-04-22T06:38:36;101458.77;;;31.13;23.26
33949;BME280;20229;49.856;19.030;2023-04-22T06:43:50;101458.97;;;32.51;23.45
33949;BME280;20229;49.856;19.030;2023-04-22T06:49:03;101456.61;;;34.07;19.07
33949;BME280;20229;49.856;19.030;2023-04-22T06:54:18;101467.43;;;34.68;18.28
33949;BME280;20229;49.856;19.030;2023-04-22T06:59:31;101454.89;;;35.64;20.31
33949;BME280;20229;49.856;19.030;2023-04-22T07:04:45;101450.37;;;37.09;18.56
33949;BME280;20229;49.856;19.030;2023-04-22T07:09:59;101446.16;;;38.06;18.22
33949;BME280;20229;49.856;19.030;2023-04-22T07:15:13;101447.94;;;39.38;16.07
33949;BME280;20229;49.856;19.030;2023-04-22T07:20:27;101452.58;;;40.00;14.95
33949;BME280;20229;49.856;19.030;2023-04-22T07:25:41;101448.16;;;39.03;14.06
33949;BME280;20229;49.856;19.030;2023-04-22T07:30:55;101446.98;;;40.27;14.27
33949;BME280;20229;49.856;19.030;2023-04-22T07:36:08;101441.29;;;40.10;15.12
33949;BME280;20229;49.856;19.030;2023-04-22T07:41:22;101433.90;;;41.12;15.54
33949;BME280;20229;49.856;19.030;2023-04-22T07:46:36;101437.06;;;42.58;14.17
33949;BME280;20229;49.856;19.030;2023-04-22T07:51:50;101437.20;;;43.09;13.56
33949;BME280;20229;49.856;19.030;2023-04-22T07:57:04;101431.91;;;42.65;13.31
33949;BME280;20229;49.856;19.030;2023-04-22T08:02:18;101432.57;;;42.88;13.86
33949;BME280;20229;49.856;19.030;2023-04-22T08:07:32;101427.96;;;43.07;13.87
33949;BME280;20229;49.856;19.030;2023-04-22T08:12:45;101415.34;;;43.29;15.02
33949;BME280;20229;49.856;19.030;2023-04-22T08:17:59;101417.09;;;43.19;14.95
33949;BME280;20229;49.856;19.030;2023-04-22T08:23:14;101413.02;;;43.00;14.51
33949;BME280;20229;49.856;19.030;2023-04-22T08:28:27;101411.34;;;43.09;14.71
33949;BME280;20229;49.856;19.030;2023-04-22T08:33:42;101411.88;;;42.86;12.25
33949;BME280;20229;49.856;19.030;2023-04-22T08:38:56;101407.39;;;38.90;14.60
33949;BME280;20229;49.856;19.030;2023-04-22T08:44:10;101408.96;;;34.99;17.32
33949;BME280;20229;49.856;19.030;2023-04-22T08:49:25;101403.84;;;33.08;18.96
33949;BME280;20229;49.856;19.030;2023-04-22T08:54:40;101408.81;;;31.63;19.69
33949;BME280;20229;49.856;19.030;2023-04-22T08:59:55;101396.27;;;30.67;20.88
33949;BME280;20229;49.856;19.030;2023-04-22T09:05:10;101408.16;;;29.45;20.52
33949;BME280;20229;49.856;19.030;2023-04-22T09:10:25;101394.07;;;28.78;22.18
33949;BME280;20229;49.856;19.030;2023-04-22T09:15:40;101386.59;;;28.47;23.42
33949;BME280;20229;49.856;19.030;2023-04-22T09:20:55;101387.91;;;28.05;24.39
33949;BME280;20229;49.856;19.030;2023-04-22T09:26:10;101384.32;;;27.41;25.56
33949;BME280;20229;49.856;19.030;2023-04-22T09:32:52;101385.84;;;26.47;24.96
33949;BME280;20229;49.856;19.030;2023-04-22T09:38:13;101387.77;;;25.80;24.06
33949;BME280;20229;49.856;19.030;2023-04-22T09:43:31;101370.16;;;25.61;24.56
33949;BME280;20229;49.856;19.030;2023-04-22T09:48:45;101378.17;;;25.48;26.58
33949;BME280;20229;49.856;19.030;2023-04-22T09:54:04;101366.49;;;25.61;26.56
33949;BME280;20229;49.856;19.030;2023-04-22T09:59:27;101353.49;;;25.43;26.60
33949;BME280;20229;49.856;19.030;2023-04-22T10:04:41;101360.77;;;25.28;25.08
33949;BME280;20229;49.856;19.030;2023-04-22T10:09:56;101359.93;;;24.84;26.39
33949;BME280;20229;49.856;19.030;2023-04-22T10:15:10;101360.41;;;24.53;27.15
33949;BME280;20229;49.856;19.030;2023-04-22T10:20:27;101346.59;;;24.33;28.21
33949;BME280;20229;49.856;19.030;2023-04-22T10:25:41;101338.53;;;24.30;30.07
33949;BME280;20229;49.856;19.030;2023-04-22T10:30:57;101335.52;;;24.06;27.54
33949;BME280;20229;49.856;19.030;2023-04-22T10:36:18;101327.07;;;23.98;27.68
33949;BME280;20229;49.856;19.030;2023-04-22T10:41:33;101331.91;;;23.78;27.25
33949;BME280;20229;49.856;19.030;2023-04-22T10:46:56;101323.15;;;23.73;29.42
33949;BME280;20229;49.856;19.030;2023-04-22T10:52:26;101307.60;;;23.70;30.85
33949;BME280;20229;49.856;19.030;2023-04-22T10:57:42;101307.30;;;23.46;28.00
33949;BME280;20229;49.856;19.030;2023-04-22T11:03:08;101308.55;;;23.33;27.71
33949;BME280;20229;49.856;19.030;2023-04-22T11:14:15;101288.62;;;23.28;28.29
33949;BME280;20229;49.856;19.030;2023-04-22T11:19:29;101292.95;;;23.13;28.00
33949;BME280;20229;49.856;19.030;2023-04-22T11:35:33;101281.09;;;23.38;29.82
33949;BME280;20229;49.856;19.030;2023-04-22T11:40:48;101282.74;;;23.31;29.92
33949;BME280;20229;49.856;19.030;2023-04-22T11:46:02;101276.63;;;23.46;30.46
33949;BME280;20229;49.856;19.030;2023-04-22T11:51:17;101264.94;;;23.42;29.93
33949;BME280;20229;49.856;19.030;2023-04-22T11:56:36;101262.80;;;23.36;28.65
33949;BME280;20229;49.856;19.030;2023-04-22T12:01:51;101261.10;;;23.25;27.95
33949;BME280;20229;49.856;19.030;2023-04-22T12:07:05;101254.23;;;23.20;28.60
33949;BME280;20229;49.856;19.030;2023-04-22T12:12:24;101259.10;;;23.35;28.24
33949;BME280;20229;49.856;19.030;2023-04-22T12:17:38;101262.93;;;23.34;29.95
33949;BME280;20229;49.856;19.030;2023-04-22T12:22:52;101247.17;;;23.25;30.18
33949;BME280;20229;49.856;19.030;2023-04-22T12:28:05;101258.11;;;23.09;27.47
33949;BME280;20229;49.856;19.030;2023-04-22T12:33:19;101255.22;;;23.01;27.89
33949;BME280;20229;49.856;19.030;2023-04-22T12:38:35;101248.52;;;22.94;29.16
33949;BME280;20229;49.856;19.030;2023-04-22T12:43:48;101248.91;;;22.99;30.12
33949;BME280;20229;49.856;19.030;2023-04-22T12:49:02;101243.14;;;23.10;31.33
33949;BME280;20229;49.856;19.030;2023-04-22T12:54:21;101233.82;;;23.01;29.53
33949;BME280;20229;49.856;19.030;2023-04-22T12:59:34;101237.17;;;23.05;30.66
33949;BME280;20229;49.856;19.030;2023-04-22T13:04:48;101237.78;;;22.89;27.65
33949;BME280;20229;49.856;19.030;2023-04-22T13:10:05;101231.34;;;22.88;29.02
33949;BME280;20229;49.856;19.030;2023-04-22T13:15:19;101229.73;;;22.96;29.78
33949;BME280;20229;49.856;19.030;2023-04-22T13:20:34;101232.30;;;23.07;28.59
33949;BME280;20229;49.856;19.030;2023-04-22T13:25:49;101222.42;;;22.95;28.71
33949;BME280;20229;49.856;19.030;2023-04-22T13:31:03;101213.33;;;22.93;30.28
33949;BME280;20229;49.856;19.030;2023-04-22T13:36:17;101207.45;;;22.96;29.26
33949;BME280;20229;49.856;19.030;2023-04-22T13:41:32;101210.55;;;22.93;30.40
33949;BME280;20229;49.856;19.030;2023-04-22T13:46:45;101203.42;;;22.80;30.70
33949;BME280;20229;49.856;19.030;2023-04-22T13:51:59;101201.67;;;22.79;29.40
33949;BME280;20229;49.856;19.030;2023-04-22T13:57:13;101205.40;;;22.60;29.63
33949;BME280;20229;49.856;19.030;2023-04-22T14:02:27;101198.79;;;22.61;30.87
33949;BME280;20229;49.856;19.030;2023-04-22T14:07:41;101204.92;;;22.65;29.21
33949;BME280;20229;49.856;19.030;2023-04-22T14:12:55;101195.43;;;22.58;29.06
33949;BME280;20229;49.856;19.030;2023-04-22T14:18:08;101201.19;;;22.47;30.24
33949;BME280;20229;49.856;19.030;2023-04-22T14:23:24;101200.97;;;22.30;29.03
33949;BME280;20229;49.856;19.030;2023-04-22T14:28:41;101188.25;;;22.18;28.97
33949;BME280;20229;49.856;19.030;2023-04-22T14:33:55;101190.28;;;22.26;29.31
33949;BME280;20229;49.856;19.030;2023-04-22T14:39:09;101188.99;;;22.20;29.09
33949;BME280;20229;49.856;19.030;2023-04-22T14:44:26;101195.12;;;22.14;29.91
33949;BME280;20229;49.856;19.030;2023-04-22T14:49:40;101181.80;;;22.08;29.39
33949;BME280;20229;49.856;19.030;2023-04-22T14:54:54;101187.23;;;22.09;29.65
33949;BME280;20229;49.856;19.030;2023-04-22T15:00:09;101185.20;;;22.02;30.11
33949;BME280;20229;49.856;19.030;2023-04-22T15:05:23;101178.62;;;21.93;29.47
33949;BME280;20229;49.856;19.030;2023-04-22T15:10:37;101176.88;;;21.92;30.96
33949;BME280;20229;49.856;19.030;2023-04-22T15:15:51;101180.98;;;21.88;30.37
33949;BME280;20229;49.856;19.030;2023-04-22T15:21:05;101169.71;;;21.89;30.49
33949;BME280;20229;49.856;19.030;2023-04-22T15:26:23;101172.94;;;21.85;28.55
33949;BME280;20229;49.856;19.030;2023-04-22T15:31:37;101179.37;;;21.76;29.63
33949;BME280;20229;49.856;19.030;2023-04-22T15:36:50;101177.91;;;21.81;29.59
33949;BME280;20229;49.856;19.030;2023-04-22T15:42:05;101173.52;;;21.69;30.50
33949;BME280;20229;49.856;19.030;2023-04-22T15:47:19;101173.68;;;21.58;30.25
33949;BME280;20229;49.856;19.030;2023-04-22T15:52:34;101178.35;;;21.47;31.05
33949;BME280;20229;49.856;19.030;2023-04-22T15:57:49;101175.58;;;21.47;31.01
33949;BME280;20229;49.856;19.030;2023-04-22T16:03:03;101170.16;;;21.36;30.61
33949;BME280;20229;49.856;19.030;2023-04-22T16:08:18;101172.89;;;21.27;31.52
33949;BME280;20229;49.856;19.030;2023-04-22T16:13:31;101168.96;;;21.10;31.57
33949;BME280;20229;49.856;19.030;2023-04-22T16:18:46;101167.31;;;20.97;31.87
33949;BME280;20229;49.856;19.030;2023-04-22T16:24:00;101166.96;;;20.81;32.14
33949;BME280;20229;49.856;19.030;2023-04-22T16:29:14;101167.83;;;20.72;32.40
33949;BME280;20229;49.856;19.030;2023-04-22T16:34:28;101160.18;;;20.55;33.40
33949;BME280;20229;49.856;19.030;2023-04-22T16:39:43;101160.95;;;20.36;32.84
33949;BME280;20229;49.856;19.030;2023-04-22T16:44:58;101160.29;;;20.22;34.32
33949;BME280;20229;49.856;19.030;2023-04-22T16:50:13;101159.56;;;19.99;35.60
33949;BME280;20229;49.856;19.030;2023-04-22T16:55:26;101161.62;;;19.76;34.77
33949;BME280;20229;49.856;19.030;2023-04-22T17:00:40;101161.56;;;19.55;36.44
33949;BME280;20229;49.856;19.030;2023-04-22T17:05:54;101163.84;;;19.29;36.77
33949;BME280;20229;49.856;19.030;2023-04-22T17:11:07;101163.27;;;19.03;37.86
33949;BME280;20229;49.856;19.030;2023-04-22T17:16:21;101167.23;;;18.78;38.76
33949;BME280;20229;49.856;19.030;2023-04-22T17:21:35;101163.21;;;18.60;39.15
33949;BME280;20229;49.856;19.030;2023-04-22T17:26:49;101163.97;;;18.39;39.52
33949;BME280;20229;49.856;19.030;2023-04-22T17:32:04;101171.12;;;18.20;40.20
33949;BME280;20229;49.856;19.030;2023-04-22T17:37:18;101171.34;;;17.94;40.98
33949;BME280;20229;49.856;19.030;2023-04-22T17:42:33;101179.65;;;17.70;41.65
33949;BME280;20229;49.856;19.030;2023-04-22T17:47:49;101180.70;;;17.45;43.15
33949;BME280;20229;49.856;19.030;2023-04-22T17:53:04;101171.70;;;17.19;43.78
33949;BME280;20229;49.856;19.030;2023-04-22T17:58:18;101171.68;;;16.95;44.81
33949;BME280;20229;49.856;19.030;2023-04-22T18:03:32;101185.52;;;16.69;45.65
33949;BME280;20229;49.856;19.030;2023-04-22T18:08:47;101189.45;;;16.41;45.98
33949;BME280;20229;49.856;19.030;2023-04-22T18:14:00;101202.02;;;16.20;47.19
33949;BME280;20229;49.856;19.030;2023-04-22T18:19:15;101200.90;;;15.97;48.35
33949;BME280;20229;49.856;19.030;2023-04-22T18:24:29;101203.42;;;15.74;48.96
33949;BME280;20229;49.856;19.030;2023-04-22T18:29:43;101205.23;;;15.48;49.94
33949;BME280;20229;49.856;19.030;2023-04-22T18:34:57;101220.92;;;15.34;50.01
33949;BME280;20229;49.856;19.030;2023-04-22T18:40:11;101222.59;;;15.09;50.97
33949;BME280;20229;49.856;19.030;2023-04-22T18:45:26;101220.47;;;14.86;52.10
33949;BME280;20229;49.856;19.030;2023-04-22T18:50:39;101226.39;;;14.65;52.28
33949;BME280;20229;49.856;19.030;2023-04-22T18:55:55;101221.38;;;14.43;52.70
33949;BME280;20229;49.856;19.030;2023-04-22T19:01:09;101231.07;;;14.20;53.31
33949;BME280;20229;49.856;19.030;2023-04-22T19:06:23;101230.48;;;14.01;54.98
33949;BME280;20229;49.856;19.030;2023-04-22T19:11:37;101225.62;;;13.76;54.51
33949;BME280;20229;49.856;19.030;2023-04-22T19:16:51;101227.82;;;13.55;55.88
33949;BME280;20229;49.856;19.030;2023-04-22T19:22:05;101235.37;;;13.35;56.10
33949;BME280;20229;49.856;19.030;2023-04-22T19:27:19;101221.84;;;13.16;56.32
33949;BME280;20229;49.856;19.030;2023-04-22T19:32:34;101226.73;;;12.96;57.67
33949;BME280;20229;49.856;19.030;2023-04-22T19:37:48;101226.82;;;12.78;57.52
33949;BME280;20229;49.856;19.030;2023-04-22T19:43:02;101231.43;;;12.62;58.07
33949;BME280;20229;49.856;19.030;2023-04-22T19:48:17;101229.52;;;12.47;58.79
33949;BME280;20229;49.856;19.030;2023-04-22T19:53:32;101233.13;;;12.31;59.20
33949;BME280;20229;49.856;19.030;2023-04-22T19:58:48;101229.55;;;12.13;59.49
33949;BME280;20229;49.856;19.030;2023-04-22T20:04:03;101226.84;;;11.96;60.02
33949;BME280;20229;49.856;19.030;2023-04-22T20:09:18;101236.60;;;11.84;60.79
33949;BME280;20229;49.856;19.030;2023-04-22T20:14:32;101223.84;;;11.66;60.85
33949;BME280;20229;49.856;19.030;2023-04-22T20:19:47;101231.73;;;11.55;62.23
33949;BME280;20229;49.856;19.030;2023-04-22T20:25:04;101231.81;;;11.36;62.42
33949;BME280;20229;49.856;19.030;2023-04-22T20:30:19;101225.13;;;11.24;61.96
33949;BME280;20229;49.856;19.030;2023-04-22T20:35:34;101222.03;;;11.13;61.84
33949;BME280;20229;49.856;19.030;2023-04-22T20:40:52;101226.13;;;11.04;62.08
33949;BME280;20229;49.856;19.030;2023-04-22T20:46:05;101216.71;;;10.92;62.36
33949;BME280;20229;49.856;19.030;2023-04-22T20:51:20;101223.65;;;10.81;63.43
33949;BME280;20229;49.856;19.030;2023-04-22T20:56:33;101212.60;;;10.65;63.91
33949;BME280;20229;49.856;19.030;2023-04-22T21:01:49;101213.03;;;10.56;65.09
33949;BME280;20229;49.856;19.030;2023-04-22T21:07:03;101220.03;;;10.42;64.98
33949;BME280;20229;49.856;19.030;2023-04-22T21:12:24;101207.82;;;10.32;65.08
33949;BME280;20229;49.856;19.030;2023-04-22T21:17:44;101218.23;;;10.22;65.87
33949;BME280;20229;49.856;19.030;2023-04-22T21:23:33;101223.59;;;10.05;66.15
33949;BME280;20229;49.856;19.030;2023-04-22T21:28:47;101224.96;;;9.95;66.81
33949;BME280;20229;49.856;19.030;2023-04-22T21:34:02;101221.89;;;9.82;66.21
33949;BME280;20229;49.856;19.030;2023-04-22T21:39:20;101233.55;;;9.86;63.26
33949;BME280;20229;49.856;19.030;2023-04-22T21:44:35;101220.47;;;9.94;63.41
33949;BME280;20229;49.856;19.030;2023-04-22T21:49:49;101216.98;;;10.11;62.57
33949;BME280;20229;49.856;19.030;2023-04-22T21:55:05;101226.23;;;10.27;61.31
33949;BME280;20229;49.856;19.030;2023-04-22T22:00:19;101219.98;;;10.44;61.12
33949;BME280;20229;49.856;19.030;2023-04-22T22:05:36;101222.48;;;10.48;60.90
33949;BME280;20229;49.856;19.030;2023-04-22T22:10:49;101216.50;;;10.59;61.03
33949;BME280;20229;49.856;19.030;2023-04-22T22:16:03;101214.52;;;10.63;61.34
33949;BME280;20229;49.856;19.030;2023-04-22T22:21:17;101216.13;;;10.67;61.75
33949;BME280;20229;49.856;19.030;2023-04-22T22:26:31;101212.60;;;10.65;61.18
33949;BME280;20229;49.856;19.030;2023-04-22T22:31:45;101218.06;;;10.65;60.91
33949;BME280;20229;49.856;19.030;2023-04-22T22:36:59;101226.31;;;10.63;61.10
33949;BME280;20229;49.856;19.030;2023-04-22T22:42:13;101224.41;;;10.65;61.02
33949;BME280;20229;49.856;19.030;2023-04-22T22:47:27;101224.41;;;10.65;61.74
33949;BME280;20229;49.856;19.030;2023-04-22T22:52:41;101217.97;;;10.66;60.29
33949;BME280;20229;49.856;19.030;2023-04-22T22:57:55;101222.50;;;10.67;61.10
33949;BME280;20229;49.856;19.030;2023-04-22T23:03:08;101230.60;;;10.69;60.76
33949;BME280;20229;49.856;19.030;2023-04-22T23:08:23;101231.57;;;10.68;61.74
33949;BME280;20229;49.856;19.030;2023-04-22T23:13:37;101228.84;;;10.68;60.93
33949;BME280;20229;49.856;19.030;2023-04-22T23:18:51;101221.58;;;10.67;60.41
33949;BME280;20229;49.856;19.030;2023-04-22T23:24:07;101227.77;;;10.70;60.09
33949;BME280;20229;49.856;19.030;2023-04-22T23:29:21;101232.36;;;10.70;61.58
33949;BME280;20229;49.856;19.030;2023-04-22T23:34:39;101218.85;;;10.67;60.55
33949;BME280;20229;49.856;19.030;2023-04-22T23:39:56;101223.66;;;10.62;60.45
33949;BME280;20229;49.856;19.030;2023-04-22T23:45:11;101217.24;;;10.63;60.73
33949;BME280;20229;49.856;19.030;2023-04-22T23:50:25;101213.86;;;10.58;61.01
33949;BME280;20229;49.856;19.030;2023-04-22T23:55:40;101215.77;;;10.56;61.00
